Terminal Aerodrome Forecast
Issued by NWS Sterling, VA

Home | Current Version | Previous Version | Text Only | Print | Product List | Glossary On
Versions: 1 2 3 4 5 6 7 8 9 10 11 12 13 14 15 16 17 18 19 20 21 22 23 24 25 26 27 28
000
FTUS41 KLWX 250200 AAA
TAFBWI
TAF AMD
KBWI 250218Z 2502/2606 18007KT 1SM BR OVC003 WS020/22050KT
      TEMPO 2502/2505 VRB04KT 1/4SM FG
     FM250500 24009KT 3SM -SHRA BR BKN008 OVC012 WS020/26040KT
     FM250900 29012KT P6SM SCT060 BKN120
     FM251300 28013G25KT P6SM SCT040
     FM252200 28008KT P6SM FEW250=

USA.gov is the U.S. government's official web portal to all federal, state and local government web resources and services.